Time;durP1;ratioP1;P1;durP2;ratioP2;P2;SDS_P1;SDS_P2;PMS_P1;PMS_P2;Temp;Humidity;BMP_temperature;BMP_pressure;BME280_temperature;BME280_humidity;BME280_pressure;Samples;Min_cycle;Max_cycle;Signal;HPM_P1;HPM_P2
2022/08/19 00:00:34;;;;;;;10.45;4.70;;;17.30;99.90;;;;;;3058262;19;20598;-74
2022/08/19 00:01:40;;;;;;;6.85;4.63;;;17.40;99.90;;;;;;3058447;19;20006;-74
2022/08/19 00:02:42;;;;;;;9.48;5.15;;;17.40;99.90;;;;;;3058475;19;20027;-73
2022/08/19 00:03:48;;;;;;;;;;;17.40;99.90;;;;;;3058705;19;20039;-74
2022/08/19 00:04:52;;;;;;;10.38;5.32;;;17.30;99.90;;;;;;3058304;19;19914;-74
2022/08/19 00:05:56;;;;;;;7.60;4.97;;;17.40;99.90;;;;;;3057682;19;20070;-74
2022/08/19 00:06:58;;;;;;;7.13;4.78;;;17.20;99.90;;;;;;3058244;19;20010;-74
2022/08/19 00:08:04;;;;;;;7.78;4.72;;;17.30;99.90;;;;;;3057182;19;20011;-74
2022/08/19 00:09:09;;;;;;;8.20;5.00;;;17.30;99.90;;;;;;3057654;19;20043;-73
2022/08/19 00:10:16;;;;;;;6.75;4.43;;;17.10;99.90;;;;;;3057869;19;20010;-74
2022/08/19 00:11:18;;;;;;;6.93;4.88;;;17.20;99.90;;;;;;3058144;19;20027;-74
2022/08/19 00:12:22;;;;;;;6.75;5.00;;;17.40;99.90;;;;;;3057324;19;20097;-74
2022/08/19 00:13:24;;;;;;;8.30;5.40;;;17.20;99.90;;;;;;3057454;19;20013;-74
2022/08/19 00:14:31;;;;;;;8.93;5.18;;;17.10;99.90;;;;;;3058024;19;20006;-74
2022/08/19 00:15:32;;;;;;;7.40;5.55;;;16.60;99.90;;;;;;3058182;19;20010;-75
2022/08/19 00:16:36;;;;;;;6.40;4.72;;;17.10;99.90;;;;;;3058098;19;20045;-74
2022/08/19 00:17:37;;;;;;;8.88;5.45;;;17.10;99.90;;;;;;3057853;19;20349;-74
2022/08/19 00:18:41;;;;;;;7.65;5.93;;;17.10;99.90;;;;;;3057601;19;20370;-74
2022/08/19 00:19:45;;;;;;;10.43;6.45;;;17.30;99.90;;;;;;3058185;19;20074;-75
2022/08/19 00:20:49;;;;;;;9.13;5.95;;;17.10;99.90;;;;;;3059437;19;20027;-75
2022/08/19 00:21:51;;;;;;;8.75;5.88;;;17.30;99.90;;;;;;3057979;19;20043;-74
2022/08/19 00:22:55;;;;;;;9.02;6.30;;;17.20;99.90;;;;;;3057995;19;20014;-75
2022/08/19 00:23:58;;;;;;;9.27;5.80;;;17.10;99.90;;;;;;3058249;19;20011;-74
2022/08/19 00:25:02;;;;;;;8.70;6.68;;;17.10;99.90;;;;;;3058049;19;20014;-75
2022/08/19 00:26:04;;;;;;;9.45;6.60;;;17.10;99.90;;;;;;3057974;19;20031;-74
2022/08/19 00:27:07;;;;;;;;;;;17.10;99.90;;;;;;3058399;19;20030;-75
2022/08/19 00:28:09;;;;;;;8.93;6.35;;;17.00;99.90;;;;;;3058039;19;19914;-75
2022/08/19 00:29:15;;;;;;;9.18;6.13;;;17.20;99.90;;;;;;3057644;19;20017;-73
2022/08/19 00:30:17;;;;;;;8.45;6.30;;;17.20;99.90;;;;;;3057882;19;20487;-74
2022/08/19 00:31:21;;;;;;;11.68;6.68;;;17.10;99.90;;;;;;3057816;19;20014;-75
2022/08/19 00:32:23;;;;;;;9.75;6.80;;;18.10;99.90;;;;;;3058050;19;20369;-75
2022/08/19 00:33:27;;;;;;;7.85;6.85;;;17.00;99.90;;;;;;3058058;19;20480;-74
2022/08/19 00:34:28;;;;;;;10.30;6.88;;;17.10;99.90;;;;;;3058276;19;20007;-74
2022/08/19 00:35:35;;;;;;;8.05;6.78;;;17.20;99.90;;;;;;3057897;19;20408;-75
2022/08/19 00:36:37;;;;;;;10.10;7.03;;;17.00;99.90;;;;;;3058230;19;20017;-74
2022/08/19 00:37:43;;;;;;;13.38;6.80;;;17.20;99.90;;;;;;3057385;19;20010;-74
2022/08/19 00:38:44;;;;;;;10.52;7.03;;;17.20;99.90;;;;;;3057896;19;20027;-74
2022/08/19 00:39:48;;;;;;;9.23;6.57;;;17.10;99.90;;;;;;3056991;19;20385;-73
2022/08/19 00:40:50;;;;;;;9.43;6.53;;;17.20;99.90;;;;;;3057197;19;20471;-74
2022/08/19 00:41:54;;;;;;;9.70;6.40;;;17.20;99.90;;;;;;3057738;19;20371;-74
2022/08/19 00:42:56;;;;;;;11.48;6.97;;;17.10;99.90;;;;;;3057878;19;20480;-74
2022/08/19 00:44:02;;;;;;;12.18;7.30;;;17.20;99.90;;;;;;3057790;19;20112;-75
2022/08/19 00:45:10;;;;;;;8.13;6.45;;;17.10;99.90;;;;;;3057864;19;20488;-74
2022/08/19 00:46:14;;;;;;;8.50;6.53;;;17.00;99.90;;;;;;3057973;19;20066;-74
2022/08/19 00:47:16;;;;;;;10.00;6.38;;;17.00;99.90;;;;;;3057898;19;20560;-74
2022/08/19 00:48:22;;;;;;;8.75;6.25;;;17.00;99.90;;;;;;3057874;19;20006;-74
2022/08/19 00:49:27;;;;;;;9.07;6.97;;;16.80;99.90;;;;;;3057262;19;20708;-74
2022/08/19 00:50:32;;;;;;;7.80;6.60;;;17.20;99.90;;;;;;3057790;19;20007;-74
2022/08/19 00:51:36;;;;;;;9.68;6.55;;;17.00;99.90;;;;;;3057629;19;20544;-74
2022/08/19 00:52:45;;;;;;;8.43;6.47;;;16.90;99.90;;;;;;3057706;19;20018;-74
2022/08/19 00:53:49;;;;;;;14.02;7.28;;;16.90;99.90;;;;;;3057832;19;20045;-74
2022/08/19 00:54:55;;;;;;;11.27;7.15;;;17.00;99.90;;;;;;3057774;19;19999;-75
2022/08/19 00:56:00;;;;;;;10.57;6.68;;;16.90;99.90;;;;;;3057713;19;20002;-75
2022/08/19 00:57:08;;;;;;;12.43;7.25;;;16.90;99.90;;;;;;3057979;19;20003;-75
2022/08/19 00:58:13;;;;;;;11.20;6.75;;;16.90;99.90;;;;;;3056836;19;20007;-74
2022/08/19 00:59:18;;;;;;;10.40;6.85;;;16.90;99.90;;;;;;3057941;19;20011;-74
2022/08/19 01:00:22;;;;;;;8.52;6.75;;;16.80;99.90;;;;;;3057499;19;20015;-74
2022/08/19 01:01:26;;;;;;;8.02;6.15;;;17.00;99.90;;;;;;3057692;19;20006;-75
2022/08/19 01:02:29;;;;;;;11.82;7.32;;;17.00;99.90;;;;;;3057694;19;20501;-75
2022/08/19 01:03:33;;;;;;;11.00;6.82;;;17.00;99.90;;;;;;3057901;19;20334;-74
2022/08/19 01:04:35;;;;;;;10.60;7.20;;;16.90;99.90;;;;;;3057595;19;20010;-75
2022/08/19 01:05:39;;;;;;;8.98;6.72;;;16.70;99.90;;;;;;3057899;19;20021;-74
2022/08/19 01:06:43;;;;;;;9.73;6.63;;;16.90;99.90;;;;;;3057425;19;20061;-74
2022/08/19 01:07:47;;;;;;;9.77;6.93;;;16.60;99.90;;;;;;3057786;19;20006;-74
2022/08/19 01:08:49;;;;;;;8.68;6.85;;;16.80;99.90;;;;;;3057280;19;20330;-74
2022/08/19 01:09:53;;;;;;;;;;;16.70;99.90;;;;;;3058147;19;20040;-74
2022/08/19 01:10:58;;;;;;;9.93;6.88;;;16.70;99.90;;;;;;3057386;19;19914;-74
2022/08/19 01:12:02;;;;;;;9.45;6.78;;;16.80;99.90;;;;;;3057484;19;20011;-74
2022/08/19 01:13:04;;;;;;;9.07;6.75;;;16.60;99.90;;;;;;3057364;19;20491;-75
2022/08/19 01:14:09;;;;;;;12.40;7.95;;;16.70;99.90;;;;;;3056781;19;20372;-74
2022/08/19 01:15:18;;;;;;;11.10;6.60;;;16.80;99.90;;;;;;3056651;19;20081;-75
2022/08/19 01:16:25;;;;;;;10.77;6.75;;;16.80;99.90;;;;;;3057485;19;20028;-74
2022/08/19 01:17:27;;;;;;;10.60;7.15;;;16.70;99.90;;;;;;3058670;19;20024;-75
2022/08/19 01:18:33;;;;;;;11.77;7.22;;;16.80;99.90;;;;;;3059433;19;20003;-75
2022/08/19 01:19:37;;;;;;;10.07;6.75;;;16.80;99.90;;;;;;3060085;19;20356;-75
2022/08/19 01:20:42;;;;;;;13.75;7.30;;;16.70;99.90;;;;;;3060567;19;20354;-75
2022/08/19 01:21:55;;;;;;;9.70;6.97;;;16.70;99.90;;;;;;3060632;19;20003;-75
2022/08/19 01:23:05;;;;;;;9.73;7.10;;;16.70;99.90;;;;;;3060554;19;20491;-75
2022/08/19 01:24:07;;;;;;;12.07;7.88;;;16.50;99.90;;;;;;3060466;19;20399;-73
2022/08/19 01:25:11;;;;;;;9.93;7.40;;;16.70;99.90;;;;;;3060475;19;20011;-74
2022/08/19 01:26:15;;;;;;;11.98;7.45;;;16.50;99.90;;;;;;3060412;19;20018;-74
2022/08/19 01:27:20;;;;;;;10.30;6.95;;;16.70;99.90;;;;;;3058467;19;20484;-74
2022/08/19 01:28:25;;;;;;;11.30;7.45;;;16.70;99.90;;;;;;3059496;19;19999;-74
2022/08/19 01:29:29;;;;;;;12.23;7.18;;;16.80;99.90;;;;;;3059487;19;20014;-74
2022/08/19 01:30:33;;;;;;;13.82;8.55;;;16.70;99.90;;;;;;3059326;19;20014;-75
2022/08/19 01:31:39;;;;;;;11.40;7.28;;;16.50;99.90;;;;;;3059683;19;20360;-75
2022/08/19 01:32:40;;;;;;;9.90;7.28;;;16.70;99.90;;;;;;3060148;19;20010;-75
2022/08/19 01:33:46;;;;;;;11.27;7.20;;;16.50;99.90;;;;;;3060211;19;20010;-75
2022/08/19 01:34:47;;;;;;;12.13;7.63;;;16.60;99.90;;;;;;3060345;19;20051;-75
2022/08/19 01:35:52;;;;;;;12.93;8.10;;;16.80;99.90;;;;;;3060264;19;20126;-75
2022/08/19 01:36:57;;;;;;;12.63;7.72;;;16.70;99.90;;;;;;3060450;19;20028;-74
2022/08/19 01:38:08;;;;;;;10.23;7.35;;;16.70;99.90;;;;;;3059909;19;20044;-75
2022/08/19 01:39:12;;;;;;;12.85;7.60;;;16.70;99.90;;;;;;3060143;19;20010;-75
2022/08/19 01:40:16;;;;;;;12.50;7.35;;;16.70;99.90;;;;;;3059836;19;20010;-75
2022/08/19 01:41:18;;;;;;;10.07;7.68;;;16.50;99.90;;;;;;3060269;19;20010;-75
2022/08/19 01:42:23;;;;;;;11.77;7.55;;;16.60;99.90;;;;;;3059981;19;20350;-75
2022/08/19 01:43:26;;;;;;;9.52;6.82;;;16.80;99.90;;;;;;3060384;19;20010;-75
2022/08/19 01:44:30;;;;;;;9.27;7.00;;;16.60;99.90;;;;;;3059302;19;20023;-74
2022/08/19 01:45:33;;;;;;;10.45;7.45;;;16.50;99.90;;;;;;3059669;19;20480;-74
2022/08/19 01:46:38;;;;;;;11.93;7.57;;;16.60;99.90;;;;;;3059913;19;20042;-74
2022/08/19 01:47:40;;;;;;;12.00;8.23;;;16.50;99.90;;;;;;3060104;19;20015;-74
2022/08/19 01:48:45;;;;;;;12.73;8.88;;;16.70;99.90;;;;;;3059581;19;20014;-75
2022/08/19 01:49:46;;;;;;;11.23;8.00;;;16.50;99.90;;;;;;3060006;19;20014;-75
2022/08/19 01:50:50;;;;;;;10.38;8.15;;;16.30;99.90;;;;;;3059916;19;20011;-73
2022/08/19 01:51:53;;;;;;;11.55;7.63;;;16.40;99.90;;;;;;3059177;19;20480;-75
2022/08/19 01:52:57;;;;;;;11.80;8.20;;;16.60;99.90;;;;;;3059276;19;20009;-75
2022/08/19 01:54:01;;;;;;;12.23;8.38;;;16.50;99.90;;;;;;3059921;19;20070;-75
2022/08/19 01:55:07;;;;;;;10.50;7.80;;;16.40;99.90;;;;;;3059968;19;20014;-75
2022/08/19 01:56:11;;;;;;;11.35;8.18;;;16.40;99.90;;;;;;3059888;19;20011;-74
2022/08/19 01:57:14;;;;;;;11.85;8.63;;;16.60;99.90;;;;;;3059981;19;20011;-74
2022/08/19 01:58:21;;;;;;;11.68;8.77;;;16.40;99.90;;;;;;3059363;19;20084;-75
2022/08/19 01:59:24;;;;;;;11.55;8.35;;;16.70;99.90;;;;;;3059955;19;20018;-74
2022/08/19 02:00:30;;;;;;;14.23;9.43;;;16.40;99.90;;;;;;3059710;19;20419;-74
2022/08/19 02:01:32;;;;;;;13.02;8.18;;;16.50;99.90;;;;;;3060124;19;20024;-74
2022/08/19 02:02:35;;;;;;;;;;;16.20;99.90;;;;;;3060298;19;20015;-75
2022/08/19 02:03:37;;;;;;;12.60;8.80;;;16.60;99.90;;;;;;3060114;19;20004;-75
2022/08/19 02:04:42;;;;;;;14.02;8.38;;;16.30;99.90;;;;;;3059753;19;20018;-75
2022/08/19 02:05:44;;;;;;;13.50;8.68;;;16.40;99.90;;;;;;3059902;19;20051;-75
2022/08/19 02:06:48;;;;;;;13.48;8.95;;;16.20;99.90;;;;;;3059709;19;20015;-75
2022/08/19 02:07:50;;;;;;;13.60;8.68;;;16.30;99.90;;;;;;3058934;19;20021;-75
2022/08/19 02:08:55;;;;;;;13.88;8.55;;;16.30;99.90;;;;;;3058824;19;20535;-75
2022/08/19 02:10:03;;;;;;;12.35;8.20;;;16.50;99.90;;;;;;3059908;19;20773;-76
2022/08/19 02:11:08;;;;;;;13.50;8.32;;;16.30;99.90;;;;;;3058968;19;20014;-75
2022/08/19 02:12:09;;;;;;;12.98;8.45;;;16.60;99.90;;;;;;3059020;19;20049;-74
2022/08/19 02:13:14;;;;;;;12.13;8.18;;;16.40;99.90;;;;;;3059767;19;20089;-74
2022/08/19 02:14:15;;;;;;;12.73;8.23;;;16.30;99.90;;;;;;3058959;19;20484;-75
2022/08/19 02:15:21;;;;;;;12.70;9.25;;;16.30;99.90;;;;;;3059738;19;20015;-74
2022/08/19 02:16:26;;;;;;;15.18;9.35;;;16.40;99.90;;;;;;3059995;19;20006;-75
2022/08/19 02:17:28;;;;;;;15.50;9.30;;;16.30;99.90;;;;;;3059701;19;20039;-75
2022/08/19 02:18:32;;;;;;;13.95;8.88;;;16.40;99.90;;;;;;3059338;19;20077;-76
2022/08/19 02:19:36;;;;;;;14.23;9.32;;;16.30;99.90;;;;;;3060407;19;20024;-75
2022/08/19 02:20:39;;;;;;;11.10;8.13;;;16.30;99.90;;;;;;3059612;19;20454;-75
2022/08/19 02:21:43;;;;;;;12.77;8.70;;;16.40;99.90;;;;;;3059543;19;20011;-75
2022/08/19 02:22:45;;;;;;;14.63;9.25;;;16.40;99.90;;;;;;3059741;19;20034;-75
2022/08/19 02:23:49;;;;;;;13.07;9.07;;;16.40;99.90;;;;;;3059519;19;20010;-74
2022/08/19 02:24:51;;;;;;;14.63;8.93;;;16.30;99.90;;;;;;3059695;19;20007;-75
2022/08/19 02:25:57;;;;;;;12.30;8.98;;;16.60;99.90;;;;;;3059516;19;20364;-75
2022/08/19 02:26:58;;;;;;;15.85;8.48;;;16.20;99.90;;;;;;3059212;19;20003;-75
2022/08/19 02:28:05;;;;;;;12.98;9.18;;;16.30;99.90;;;;;;3059336;19;20393;-75
2022/08/19 02:29:06;;;;;;;14.00;8.52;;;16.40;99.90;;;;;;3059337;19;20338;-75
2022/08/19 02:30:15;;;;;;;14.98;9.23;;;16.40;99.90;;;;;;3058490;19;20051;-74
2022/08/19 02:31:20;;;;;;;14.05;8.88;;;16.30;99.90;;;;;;3058820;19;20031;-75
2022/08/19 02:32:25;;;;;;;12.50;9.00;;;16.30;99.90;;;;;;3059487;19;20345;-75
2022/08/19 02:33:26;;;;;;;12.02;8.82;;;16.20;99.90;;;;;;3059490;19;20358;-74
2022/08/19 02:34:30;;;;;;;12.50;8.65;;;16.40;99.90;;;;;;3059340;19;20464;-75
2022/08/19 02:35:32;;;;;;;12.30;9.13;;;16.50;99.90;;;;;;3059395;19;20514;-75
2022/08/19 02:36:36;;;;;;;16.85;9.70;;;16.40;99.90;;;;;;3059475;19;20014;-75
2022/08/19 02:38:54;;;;;;;14.32;9.20;;;17.70;99.90;;;;;;3058859;19;20021;-74
2022/08/19 02:39:58;;;;;;;16.35;10.15;;;16.40;99.90;;;;;;3059650;19;20019;-74
2022/08/19 02:41:09;;;;;;;14.60;9.98;;;16.30;99.90;;;;;;3059486;19;20085;-74
2022/08/19 02:42:12;;;;;;;13.63;8.45;;;16.30;99.90;;;;;;3060180;19;19999;-74
2022/08/19 02:43:16;;;;;;;13.10;9.13;;;16.30;99.90;;;;;;3060104;19;20014;-75
2022/08/19 02:44:21;;;;;;;15.02;9.23;;;16.10;99.90;;;;;;3059635;19;20019;-75
2022/08/19 02:45:22;;;;;;;15.15;9.88;;;16.10;99.90;;;;;;3059770;19;20011;-73
2022/08/19 02:46:29;;;;;;;13.88;9.30;;;16.20;99.90;;;;;;3059814;19;20011;-74
2022/08/19 02:47:30;;;;;;;14.20;9.27;;;16.30;99.90;;;;;;3059863;19;20014;-74
2022/08/19 02:48:34;;;;;;;14.05;8.90;;;16.10;99.90;;;;;;3059351;19;20513;-74
2022/08/19 02:49:35;;;;;;;15.95;9.82;;;16.20;99.90;;;;;;3059648;19;20076;-75
2022/08/19 02:50:41;;;;;;;15.45;9.98;;;16.20;99.90;;;;;;3059705;19;20349;-74
2022/08/19 02:51:45;;;;;;;16.55;9.48;;;16.10;99.90;;;;;;3060102;19;20034;-75
2022/08/19 02:52:49;;;;;;;14.77;9.55;;;16.20;99.90;;;;;;3059645;19;20026;-76
2022/08/19 02:53:50;;;;;;;14.82;9.73;;;16.10;99.90;;;;;;3059828;19;20002;-74
2022/08/19 02:54:57;;;;;;;14.27;9.57;;;16.00;99.90;;;;;;3059253;19;20484;-75
2022/08/19 02:56:01;;;;;;;14.48;9.10;;;16.00;99.90;;;;;;3059693;19;20010;-75
2022/08/19 02:57:05;;;;;;;16.27;9.70;;;15.90;99.90;;;;;;3058258;19;20006;-75
2022/08/19 02:58:07;;;;;;;13.40;9.30;;;16.10;99.90;;;;;;3058510;19;20035;-74
2022/08/19 02:59:12;;;;;;;13.60;9.52;;;16.00;99.90;;;;;;3058408;19;20440;-74
2022/08/19 03:00:15;;;;;;;14.15;9.32;;;16.20;99.90;;;;;;3059265;19;20016;-74
2022/08/19 03:01:23;;;;;;;14.43;8.77;;;16.10;99.90;;;;;;3059005;19;20027;-74
2022/08/19 03:02:25;;;;;;;14.05;9.23;;;16.00;99.90;;;;;;3059352;19;20491;-74
2022/08/19 03:03:29;;;;;;;13.98;9.10;;;16.00;99.90;;;;;;3059228;19;20010;-75
2022/08/19 03:04:31;;;;;;;13.60;9.40;;;16.20;99.90;;;;;;3059015;19;20023;-75
2022/08/19 03:05:35;;;;;;;15.25;9.38;;;15.90;99.90;;;;;;3059405;19;20015;-75
2022/08/19 03:06:37;;;;;;;14.10;8.38;;;16.10;99.90;;;;;;3059209;19;20014;-75
2022/08/19 03:07:41;;;;;;;12.70;8.15;;;15.90;99.90;;;;;;3058874;19;20484;-74
2022/08/19 03:08:45;;;;;;;15.07;8.77;;;15.90;99.90;;;;;;3059274;19;20345;-75
2022/08/19 03:09:49;;;;;;;14.43;9.38;;;16.10;99.90;;;;;;3058873;19;20014;-75
2022/08/19 03:10:52;;;;;;;14.23;8.98;;;16.00;99.90;;;;;;3059007;19;20035;-75
2022/08/19 03:11:59;;;;;;;14.82;9.02;;;16.00;99.90;;;;;;3058895;19;20007;-75
2022/08/19 03:13:00;;;;;;;11.98;8.15;;;16.10;99.90;;;;;;3058980;19;20022;-75
2022/08/19 03:14:05;;;;;;;13.48;8.73;;;16.00;99.90;;;;;;3057929;19;20022;-75
2022/08/19 03:15:08;;;;;;;13.68;9.07;;;15.80;99.90;;;;;;3059017;19;20100;-75
2022/08/19 03:16:13;;;;;;;15.02;9.55;;;16.10;99.90;;;;;;3058914;19;20014;-75
2022/08/19 03:17:15;;;;;;;14.45;9.38;;;16.10;99.90;;;;;;3058771;19;20010;-74
2022/08/19 03:18:19;;;;;;;15.95;9.70;;;16.20;99.90;;;;;;3058948;19;20022;-75
2022/08/19 03:19:21;;;;;;;14.98;10.05;;;16.10;99.90;;;;;;3057714;19;20009;-76
2022/08/19 03:20:25;;;;;;;;;;;16.10;99.90;;;;;;3059728;19;19999;-75
2022/08/19 03:21:28;;;;;;;14.75;9.35;;;16.00;99.90;;;;;;3058751;19;19926;-75
2022/08/19 03:22:32;;;;;;;15.00;9.05;;;16.10;99.90;;;;;;3059227;19;20358;-75
2022/08/19 03:23:35;;;;;;;15.45;9.07;;;16.10;99.90;;;;;;3058994;19;20023;-75
2022/08/19 03:24:40;;;;;;;15.70;9.23;;;15.80;99.90;;;;;;3058954;19;20082;-75
2022/08/19 03:25:45;;;;;;;15.07;9.52;;;16.00;99.90;;;;;;3058733;19;20014;-75
2022/08/19 03:26:51;;;;;;;13.45;9.15;;;16.00;99.90;;;;;;3058599;19;20011;-75
2022/08/19 03:27:55;;;;;;;14.98;9.77;;;16.00;99.90;;;;;;3057651;19;20018;-75
2022/08/19 03:28:59;;;;;;;15.23;9.43;;;16.10;99.90;;;;;;3058050;19;20018;-75
2022/08/19 03:30:00;;;;;;;12.93;8.30;;;16.20;99.90;;;;;;3057897;19;20014;-75
2022/08/19 03:31:08;;;;;;;17.85;9.15;;;16.00;99.90;;;;;;3058119;19;20014;-75
2022/08/19 03:32:10;;;;;;;13.35;8.85;;;16.10;99.90;;;;;;3058591;19;20518;-75
2022/08/19 03:33:14;;;;;;;;;;;15.90;99.90;;;;;;3059296;19;20010;-75
2022/08/19 03:34:18;;;;;;;13.82;8.48;;;16.20;99.90;;;;;;3058529;19;20262;-75
2022/08/19 03:35:22;;;;;;;13.77;8.38;;;15.90;99.90;;;;;;3058756;19;20010;-75
2022/08/19 03:36:28;;;;;;;12.48;8.63;;;15.90;99.90;;;;;;3058454;19;20112;-75
2022/08/19 03:37:29;;;;;;;16.45;9.50;;;16.00;99.90;;;;;;3058687;19;20002;-75
2022/08/19 03:38:34;;;;;;;12.43;8.80;;;15.80;99.90;;;;;;3058689;19;20018;-75
2022/08/19 03:39:38;;;;;;;13.75;8.52;;;16.00;99.90;;;;;;3057954;19;20014;-75
2022/08/19 03:40:42;;;;;;;12.98;7.72;;;15.90;99.90;;;;;;3057117;19;20476;-76
2022/08/19 03:41:46;;;;;;;13.02;7.97;;;15.80;99.90;;;;;;3058578;19;20006;-75
2022/08/19 03:42:50;;;;;;;10.93;7.30;;;16.00;99.90;;;;;;3058444;19;20006;-75
2022/08/19 03:43:55;;;;;;;11.90;7.57;;;15.60;99.90;;;;;;3058639;19;20023;-75
2022/08/19 03:45:00;;;;;;;10.45;7.07;;;15.70;99.90;;;;;;3058355;19;20484;-75
2022/08/19 03:46:04;;;;;;;13.30;8.23;;;15.60;99.90;;;;;;3058469;19;20172;-75
2022/08/19 03:47:08;;;;;;;12.50;8.10;;;15.70;99.90;;;;;;3058323;19;20092;-75
2022/08/19 03:48:10;;;;;;;13.05;8.00;;;15.70;99.90;;;;;;3058395;19;20099;-75
2022/08/19 03:49:14;;;;;;;12.77;8.05;;;15.60;99.90;;;;;;3057428;19;20023;-75
2022/08/19 03:50:16;;;;;;;15.15;7.65;;;15.60;99.90;;;;;;3057771;19;20011;-75
2022/08/19 03:51:22;;;;;;;11.65;8.25;;;15.70;99.90;;;;;;3058252;19;20492;-75
2022/08/19 03:52:24;;;;;;;12.88;8.15;;;15.50;99.90;;;;;;3058465;19;20011;-75
2022/08/19 03:53:29;;;;;;;12.38;7.70;;;15.80;99.90;;;;;;3058341;19;20014;-75
2022/08/19 03:54:30;;;;;;;12.85;7.80;;;16.80;99.90;;;;;;3058629;19;20014;-75
2022/08/19 03:55:34;;;;;;;12.65;8.43;;;15.50;99.90;;;;;;3058272;19;20429;-75
2022/08/19 03:56:37;;;;;;;11.75;7.65;;;15.40;99.90;;;;;;3058619;19;20492;-75
2022/08/19 03:57:41;;;;;;;15.32;8.98;;;15.60;99.90;;;;;;3058281;19;20017;-74
2022/08/19 03:58:43;;;;;;;13.25;8.45;;;15.80;99.90;;;;;;3058381;19;20034;-75
2022/08/19 03:59:50;;;;;;;13.65;8.60;;;15.60;99.90;;;;;;3058291;19;20046;-75
2022/08/19 04:00:51;;;;;;;12.20;7.97;;;15.60;99.90;;;;;;3058338;19;20040;-75
2022/08/19 04:01:56;;;;;;;14.45;8.27;;;15.50;99.90;;;;;;3058348;19;20010;-75
2022/08/19 04:02:57;;;;;;;13.05;7.80;;;15.50;99.90;;;;;;3057805;19;20049;-76
2022/08/19 04:04:02;;;;;;;12.50;8.80;;;15.70;99.90;;;;;;3057418;19;20015;-75
2022/08/19 04:05:08;;;;;;;12.30;7.97;;;15.60;99.90;;;;;;3058545;19;20087;-75
2022/08/19 04:06:12;;;;;;;11.90;8.23;;;15.60;99.90;;;;;;3058237;19;20014;-75
2022/08/19 04:07:21;;;;;;;13.80;8.43;;;14.10;99.90;;;;;;3058561;19;20010;-75
2022/08/19 04:08:22;;;;;;;11.63;8.00;;;15.50;99.90;;;;;;3058445;19;20506;-75
2022/08/19 04:09:27;;;;;;;14.23;8.52;;;15.50;99.90;;;;;;3058196;19;20074;-75
2022/08/19 04:10:28;;;;;;;13.13;8.15;;;15.50;99.90;;;;;;3057189;19;20413;-75
2022/08/19 04:11:36;;;;;;;12.13;8.18;;;15.60;99.90;;;;;;3057590;19;20012;-75
2022/08/19 04:12:37;;;;;;;13.25;8.60;;;17.60;99.90;;;;;;3058313;19;20019;-75
2022/08/19 04:13:42;;;;;;;12.70;8.35;;;15.50;99.90;;;;;;3057785;19;20039;-75
2022/08/19 04:14:46;;;;;;;12.18;8.52;;;15.60;99.90;;;;;;3058387;19;20010;-75
2022/08/19 04:15:50;;;;;;;14.02;7.65;;;15.30;99.90;;;;;;3058082;19;20017;-75
2022/08/19 04:16:52;;;;;;;13.77;8.50;;;15.10;99.90;;;;;;3058071;19;20025;-75
2022/08/19 04:17:56;;;;;;;13.63;8.38;;;15.30;99.90;;;;;;3058451;19;19998;-75
2022/08/19 04:19:01;;;;;;;16.13;8.00;;;15.50;99.90;;;;;;3057651;19;20119;-76
2022/08/19 04:20:06;;;;;;;13.20;7.45;;;15.50;99.90;;;;;;3057895;19;20106;-75
2022/08/19 04:21:08;;;;;;;13.93;8.18;;;15.30;99.90;;;;;;3058054;19;20006;-74
2022/08/19 04:22:13;;;;;;;12.70;8.05;;;15.50;99.90;;;;;;3058148;19;20010;-75
2022/08/19 04:23:15;;;;;;;11.57;7.72;;;15.60;99.90;;;;;;3058226;19;20002;-75
2022/08/19 04:24:19;;;;;;;11.57;7.00;;;16.30;99.90;;;;;;3057990;19;20009;-75
2022/08/19 04:25:21;;;;;;;10.98;7.25;;;15.50;99.90;;;;;;3058255;19;20017;-75
2022/08/19 04:26:26;;;;;;;10.90;7.45;;;15.20;99.90;;;;;;3058086;19;20029;-75
2022/08/19 04:27:31;;;;;;;11.32;7.18;;;15.50;99.90;;;;;;3057446;19;20480;-75
2022/08/19 04:28:32;;;;;;;11.35;6.60;;;15.40;99.90;;;;;;3057895;19;20011;-75
2022/08/19 04:29:39;;;;;;;11.80;7.35;;;15.40;99.90;;;;;;3058119;19;20014;-75
2022/08/19 04:30:49;;;;;;;10.70;6.55;;;15.30;99.90;;;;;;3057911;19;20018;-75
2022/08/19 04:31:54;;;;;;;10.70;6.70;;;15.80;99.90;;;;;;3058011;19;20384;-75
2022/08/19 04:32:55;;;;;;;10.05;6.38;;;15.40;99.90;;;;;;3058105;19;20032;-75
2022/08/19 04:34:10;;;;;;;11.07;6.70;;;15.20;99.90;;;;;;3057862;19;20358;-75
2022/08/19 04:35:11;;;;;;;11.13;6.93;;;15.40;99.90;;;;;;3057784;19;20015;-77
2022/08/19 04:36:20;;;;;;;10.50;7.07;;;15.10;99.90;;;;;;3058080;19;20002;-75
2022/08/19 04:37:21;;;;;;;11.55;7.07;;;15.30;99.90;;;;;;3056966;19;20010;-75
2022/08/19 04:38:25;;;;;;;11.15;6.90;;;15.30;99.90;;;;;;3057228;19;20015;-75
2022/08/19 04:43:22;;;;;;;12.95;7.95;;;15.20;99.90;;;;;;3057147;19;20011;-75
2022/08/19 04:44:30;;;;;;;12.40;7.50;;;15.20;99.90;;;;;;3057891;19;20371;-75
2022/08/19 04:45:32;;;;;;;14.18;7.93;;;15.10;99.90;;;;;;3057750;19;20014;-75
2022/08/19 04:46:39;;;;;;;12.10;7.50;;;15.10;99.90;;;;;;3057957;19;20022;-75
2022/08/19 04:47:44;;;;;;;11.02;7.60;;;15.20;99.90;;;;;;3057748;19;20021;-74
2022/08/19 04:48:48;;;;;;;13.02;7.47;;;15.10;99.90;;;;;;3057421;19;20021;-75
2022/08/19 04:49:49;;;;;;;12.65;7.78;;;15.10;99.90;;;;;;3057811;19;20048;-75
2022/08/19 04:50:57;;;;;;;14.40;7.65;;;15.00;99.90;;;;;;3057996;19;20010;-76
2022/08/19 04:51:58;;;;;;;12.48;7.88;;;15.10;99.90;;;;;;3057754;19;20010;-76
2022/08/19 04:53:02;;;;;;;12.90;8.23;;;15.40;99.90;;;;;;3060677;19;20013;-75
2022/08/19 04:54:04;;;;;;;13.02;8.30;;;15.00;99.90;;;;;;3060800;19;20480;-75
2022/08/19 04:55:09;;;;;;;13.98;8.45;;;15.10;99.90;;;;;;3060000;19;20019;-75
2022/08/19 04:56:12;;;;;;;14.43;8.43;;;15.30;99.90;;;;;;3060239;19;20103;-75
2022/08/19 04:57:16;;;;;;;14.18;8.80;;;15.20;99.90;;;;;;3060956;19;20009;-76
2022/08/19 04:58:17;;;;;;;13.07;8.68;;;15.30;99.90;;;;;;3060795;19;20127;-76
2022/08/19 04:59:23;;;;;;;12.48;8.43;;;15.20;99.90;;;;;;3060497;19;20020;-77
2022/08/19 05:00:24;;;;;;;15.32;8.57;;;15.20;99.90;;;;;;3060716;19;20018;-75
2022/08/19 05:01:31;;;;;;;13.25;8.45;;;15.20;99.90;;;;;;3060862;19;20014;-75
2022/08/19 05:02:35;;;;;;;11.75;7.47;;;15.30;99.90;;;;;;3060635;19;20014;-75
2022/08/19 05:03:39;;;;;;;11.63;7.70;;;15.20;99.90;;;;;;3060677;19;20006;-76
2022/08/19 05:04:41;;;;;;;13.55;7.82;;;15.30;99.90;;;;;;3059751;19;20077;-76
2022/08/19 05:05:48;;;;;;;11.30;7.72;;;15.20;99.90;;;;;;3059891;19;20009;-77
2022/08/19 05:06:52;;;;;;;11.73;7.22;;;15.20;99.90;;;;;;3060738;19;20028;-76
2022/08/19 05:07:56;;;;;;;11.85;7.55;;;15.90;99.90;;;;;;3060502;19;20013;-74
2022/08/19 05:08:57;;;;;;;13.35;8.18;;;15.30;99.90;;;;;;3060621;19;20479;-75
2022/08/19 05:10:01;;;;;;;13.85;7.88;;;15.30;99.90;;;;;;3060661;19;20002;-75
2022/08/19 05:11:09;;;;;;;11.48;7.70;;;15.20;99.90;;;;;;3060848;19;20007;-75
2022/08/19 05:12:13;;;;;;;13.20;8.00;;;15.20;99.90;;;;;;3060636;19;20041;-75
2022/08/19 05:13:18;;;;;;;12.40;7.70;;;15.40;99.90;;;;;;3060834;19;20003;-75
2022/08/19 05:14:21;;;;;;;11.70;7.55;;;15.40;99.90;;;;;;3060404;19;20053;-76
2022/08/19 05:15:25;;;;;;;12.40;8.05;;;15.30;99.90;;;;;;3060541;19;20078;-75
2022/08/19 05:16:27;;;;;;;13.02;7.57;;;15.20;99.90;;;;;;3060548;19;20389;-76
2022/08/19 05:17:31;;;;;;;12.10;7.80;;;15.40;99.90;;;;;;3061105;19;20014;-75
2022/08/19 05:22:40;;;;;;;12.45;7.38;;;15.50;99.90;;;;;;3060548;19;20005;-76
2022/08/19 05:23:41;;;;;;;14.30;8.45;;;15.40;99.90;;;;;;3060425;19;20010;-76
2022/08/19 05:24:45;;;;;;;13.40;7.82;;;15.50;99.90;;;;;;3060548;19;20017;-76
2022/08/19 05:25:46;;;;;;;14.48;7.82;;;15.40;99.90;;;;;;3060607;19;20478;-76
2022/08/19 05:26:52;;;;;;;12.25;7.72;;;15.40;99.90;;;;;;3060253;19;20017;-77
2022/08/19 05:27:53;;;;;;;11.55;7.45;;;15.60;99.90;;;;;;3060677;19;20003;-76
2022/08/19 05:28:58;;;;;;;11.68;8.10;;;15.50;99.90;;;;;;3060180;19;20392;-75
2022/08/19 05:29:59;;;;;;;13.95;7.80;;;15.60;99.90;;;;;;3060358;19;20014;-75
2022/08/19 05:31:06;;;;;;;;;;;15.50;99.90;;;;;;3061306;19;20028;-76
2022/08/19 05:32:08;;;;;;;14.10;7.80;;;15.60;99.90;;;;;;3060381;19;19936;-76
2022/08/19 05:33:12;;;;;;;13.82;7.90;;;15.60;99.90;;;;;;3060430;19;20039;-76
2022/08/19 05:34:17;;;;;;;12.25;7.50;;;15.60;99.90;;;;;;3060474;19;20010;-75
2022/08/19 05:35:23;;;;;;;14.50;7.93;;;15.60;99.90;;;;;;3060194;19;20476;-75
2022/08/19 05:36:25;;;;;;;15.40;7.88;;;15.80;99.90;;;;;;3060437;19;20082;-76
2022/08/19 05:37:29;;;;;;;12.18;8.38;;;15.70;99.90;;;;;;3060363;19;20014;-75
2022/08/19 05:38:31;;;;;;;14.32;8.25;;;15.60;99.90;;;;;;3060596;19;20014;-76
2022/08/19 05:39:38;;;;;;;13.68;7.93;;;15.70;99.90;;;;;;3060200;19;20081;-75